Duluth, MN

12:35 PM CDT on March 27, 2015 (GMT -0500)
Chester Park WX | | Change Station
CLOSE
Current Station
Personal Weather Station
Location: Duluth, MN
Elevation: 1040 ft
Nearby Weather Stations

Elev 1040 ft 46.81 °N, 92.08 °W | Updated 4 minutes ago

Clear
Clear
25.2 °F
Feels Like 25 °F
N
3.0
Wind Variable Wind from SW
Gusts 4.0 mph

Today
High -- | Low -- °F
--% Chance of Precip.
Yesterday
High -- | Low -- °F
Precip. -- in
6:57 AM 7:30 PM
First Quarter, 54% visible
Pressure 30.29 in
Visibility 10.0 miles
Clouds Few 1000 ft
Windchill 25 °F
Dew Point 9 °F
Humidity 49%
Rainfall 0.00 in
Snow Depth Not available.
UV 5 out of 12
Pollen .30 out of 12
Air Quality Not available.
Flu Activity Not available.
METAR KDLH 271655Z 00000KT 10SM FEW010 M04/M16 A3020 RMK AO2 SLP256 T10441156

More Conditions Fewer Conditions

Pressure 30.29 in
Visibility 10.0 miles
Clouds Few 1000 ft
Windchill 25 °F
Dew Point 9 °F
Humidity 49%
Rainfall 0.00 in
Snow Depth Not available.
UV 5 out of 12
Pollen .30 out of 12
Air Quality Not available.
Flu Activity Not available.
METAR KDLH 271655Z 00000KT 10SM FEW010 M04/M16 A3020 RMK AO2 SLP256 T10441156

More Conditions Fewer Conditions

10-Day Weather Forecast

Almanac

Astronomy

Mar. 27, 2015 Rise Set
Actual Time
Civil Twilight
Nautical Twilight
Astronomical Twilight
Moon
Length of Visible Light
Length of Day
Tomorrow will be .
, % of the Moon is Illuminated

Today's Extremes

State Highs State Lows

Community

WunderPhotos

Upload Photos

1,808,770 photos uploaded!

WunderBlogs® & News

Nearby

Air Quality

  Air Quality AQ Index Pollutant
Not available.

Snow Depth

Station Depth Elevation

Earthquake Activity

City Distance Mag. Time & Date
Minimum magnitude displayed is 2.5.

Coastal Water Temperatures

Place Temperature

Stations

Nearby Weather Stations

Station Location Temp. Windchill Dew Point Humidity Wind Precip. Elev Updated Type